sensor_id;sensor_type;location;lat;lon;timestamp;pressure;altitude;pressure_sealevel;temperature;humidity
59106;BME280;44891;50.204;8.132;2023-05-08T00:00:27;98608.06;;;14.64;100.00
59106;BME280;44891;50.204;8.132;2023-05-08T00:04:28;98614.84;;;14.50;100.00
59106;BME280;44891;50.204;8.132;2023-05-08T00:08:32;98612.72;;;14.47;100.00
59106;BME280;44891;50.204;8.132;2023-05-08T00:12:33;98611.69;;;14.53;100.00
59106;BME280;44891;50.204;8.132;2023-05-08T00:16:35;98609.28;;;14.51;100.00
59106;BME280;44891;50.204;8.132;2023-05-08T00:20:37;98612.09;;;14.39;100.00
59106;BME280;44891;50.204;8.132;2023-05-08T00:24:40;98609.09;;;14.31;100.00
59106;BME280;44891;50.204;8.132;2023-05-08T00:28:42;98608.53;;;14.24;100.00
59106;BME280;44891;50.204;8.132;2023-05-08T00:32:44;98620.78;;;14.35;100.00
59106;BME280;44891;50.204;8.132;2023-05-08T00:36:46;98616.81;;;14.37;100.00
59106;BME280;44891;50.204;8.132;2023-05-08T00:40:49;98614.84;;;14.23;100.00
59106;BME280;44891;50.204;8.132;2023-05-08T00:44:51;98606.94;;;14.23;100.00
59106;BME280;44891;50.204;8.132;2023-05-08T00:48:53;98611.50;;;14.32;100.00
59106;BME280;44891;50.204;8.132;2023-05-08T00:52:55;98609.56;;;14.23;100.00
59106;BME280;44891;50.204;8.132;2023-05-08T00:56:59;98614.47;;;14.09;100.00
59106;BME280;44891;50.204;8.132;2023-05-08T01:01:01;98614.53;;;14.14;100.00
59106;BME280;44891;50.204;8.132;2023-05-08T01:05:04;98615.78;;;14.06;100.00
59106;BME280;44891;50.204;8.132;2023-05-08T01:09:07;98610.78;;;14.10;100.00
59106;BME280;44891;50.204;8.132;2023-05-08T01:13:13;98613.69;;;14.08;100.00
59106;BME280;44891;50.204;8.132;2023-05-08T01:17:27;98623.72;;;14.06;100.00
59106;BME280;44891;50.204;8.132;2023-05-08T01:21:33;98620.75;;;14.03;100.00
59106;BME280;44891;50.204;8.132;2023-05-08T01:25:50;98625.31;;;14.07;100.00
59106;BME280;44891;50.204;8.132;2023-05-08T01:34:16;98620.88;;;14.13;100.00
59106;BME280;44891;50.204;8.132;2023-05-08T01:38:21;98624.72;;;14.05;100.00
59106;BME280;44891;50.204;8.132;2023-05-08T01:42:31;98627.34;;;14.00;100.00
59106;BME280;44891;50.204;8.132;2023-05-08T01:46:34;98635.75;;;13.97;100.00
59106;BME280;44891;50.204;8.132;2023-05-08T01:50:39;98628.44;;;13.77;100.00
59106;BME280;44891;50.204;8.132;2023-05-08T01:54:43;98641.75;;;13.87;100.00
59106;BME280;44891;50.204;8.132;2023-05-08T01:58:47;98635.34;;;13.83;100.00
59106;BME280;44891;50.204;8.132;2023-05-08T02:02:51;98644.81;;;13.79;100.00
59106;BME280;44891;50.204;8.132;2023-05-08T02:06:55;98642.81;;;13.65;100.00
59106;BME280;44891;50.204;8.132;2023-05-08T02:10:59;98650.72;;;13.65;100.00
59106;BME280;44891;50.204;8.132;2023-05-08T02:15:02;98644.34;;;13.60;100.00
59106;BME280;44891;50.204;8.132;2023-05-08T02:19:05;98650.72;;;13.65;100.00
59106;BME280;44891;50.204;8.132;2023-05-08T02:23:10;98663.06;;;13.59;100.00
59106;BME280;44891;50.204;8.132;2023-05-08T02:27:12;98654.78;;;13.50;100.00
59106;BME280;44891;50.204;8.132;2023-05-08T02:31:15;98652.16;;;13.50;100.00
59106;BME280;44891;50.204;8.132;2023-05-08T02:35:18;98654.72;;;13.45;100.00
59106;BME280;44891;50.204;8.132;2023-05-08T02:39:24;98662.09;;;13.43;100.00
59106;BME280;44891;50.204;8.132;2023-05-08T02:43:26;98665.53;;;13.44;100.00
59106;BME280;44891;50.204;8.132;2023-05-08T02:47:31;98666.84;;;13.46;100.00
59106;BME280;44891;50.204;8.132;2023-05-08T02:51:36;98673.72;;;13.25;100.00
59106;BME280;44891;50.204;8.132;2023-05-08T02:55:43;98673.47;;;13.27;100.00
59106;BME280;44891;50.204;8.132;2023-05-08T02:59:49;98674.50;;;13.26;100.00
59106;BME280;44891;50.204;8.132;2023-05-08T03:03:54;98681.38;;;13.27;100.00
59106;BME280;44891;50.204;8.132;2023-05-08T03:08:02;98677.13;;;13.21;100.00
59106;BME280;44891;50.204;8.132;2023-05-08T03:12:07;98681.78;;;13.19;100.00
59106;BME280;44891;50.204;8.132;2023-05-08T03:16:13;98673.88;;;13.19;100.00
59106;BME280;44891;50.204;8.132;2023-05-08T03:20:16;98673.25;;;13.12;100.00
59106;BME280;44891;50.204;8.132;2023-05-08T03:24:21;98679.56;;;13.11;100.00
59106;BME280;44891;50.204;8.132;2023-05-08T03:28:25;98671.00;;;12.82;100.00
59106;BME280;44891;50.204;8.132;2023-05-08T03:32:31;98677.09;;;12.87;100.00
59106;BME280;44891;50.204;8.132;2023-05-08T03:36:33;98665.84;;;12.92;100.00
59106;BME280;44891;50.204;8.132;2023-05-08T03:40:36;98672.25;;;12.79;100.00
59106;BME280;44891;50.204;8.132;2023-05-08T03:44:40;98673.28;;;12.78;100.00
59106;BME280;44891;50.204;8.132;2023-05-08T03:48:43;98678.31;;;12.79;100.00
59106;BME280;44891;50.204;8.132;2023-05-08T03:52:46;98666.97;;;12.79;100.00
59106;BME280;44891;50.204;8.132;2023-05-08T03:56:48;98673.38;;;12.83;100.00
59106;BME280;44891;50.204;8.132;2023-05-08T04:00:57;98664.97;;;12.86;100.00
59106;BME280;44891;50.204;8.132;2023-05-08T04:05:04;98659.78;;;12.91;100.00
59106;BME280;44891;50.204;8.132;2023-05-08T04:09:12;98662.34;;;12.86;100.00
59106;BME280;44891;50.204;8.132;2023-05-08T04:13:17;98676.47;;;12.97;100.00
59106;BME280;44891;50.204;8.132;2023-05-08T04:17:25;98674.31;;;12.94;100.00
59106;BME280;44891;50.204;8.132;2023-05-08T04:21:29;98647.47;;;12.80;100.00
59106;BME280;44891;50.204;8.132;2023-05-08T04:25:35;98678.63;;;13.00;100.00
59106;BME280;44891;50.204;8.132;2023-05-08T04:29:38;98687.56;;;12.99;100.00
59106;BME280;44891;50.204;8.132;2023-05-08T04:33:41;98686.31;;;12.85;100.00
59106;BME280;44891;50.204;8.132;2023-05-08T04:37:44;98686.47;;;12.78;100.00
59106;BME280;44891;50.204;8.132;2023-05-08T04:41:47;98687.59;;;12.82;100.00
59106;BME280;44891;50.204;8.132;2023-05-08T04:45:51;98687.09;;;12.85;100.00
59106;BME280;44891;50.204;8.132;2023-05-08T04:49:54;98697.00;;;12.78;100.00
59106;BME280;44891;50.204;8.132;2023-05-08T04:53:56;98713.13;;;12.65;100.00
59106;BME280;44891;50.204;8.132;2023-05-08T04:57:58;98710.09;;;12.56;100.00
59106;BME280;44891;50.204;8.132;2023-05-08T05:02:00;98719.84;;;12.56;100.00
59106;BME280;44891;50.204;8.132;2023-05-08T05:06:05;98718.97;;;12.67;100.00
59106;BME280;44891;50.204;8.132;2023-05-08T05:10:07;98722.56;;;12.77;100.00
59106;BME280;44891;50.204;8.132;2023-05-08T05:14:09;98737.91;;;12.80;100.00
59106;BME280;44891;50.204;8.132;2023-05-08T05:18:11;98742.94;;;12.82;100.00
59106;BME280;44891;50.204;8.132;2023-05-08T05:22:14;98739.66;;;12.75;100.00
59106;BME280;44891;50.204;8.132;2023-05-08T05:26:16;98735.66;;;12.72;100.00
59106;BME280;44891;50.204;8.132;2023-05-08T05:30:18;98733.03;;;12.72;100.00
59106;BME280;44891;50.204;8.132;2023-05-08T05:34:20;98727.28;;;12.59;100.00
59106;BME280;44891;50.204;8.132;2023-05-08T05:38:24;98735.72;;;12.61;100.00
59106;BME280;44891;50.204;8.132;2023-05-08T05:42:26;98740.53;;;12.64;100.00
59106;BME280;44891;50.204;8.132;2023-05-08T05:46:29;98740.78;;;12.62;100.00
59106;BME280;44891;50.204;8.132;2023-05-08T05:50:34;98743.47;;;12.67;100.00
59106;BME280;44891;50.204;8.132;2023-05-08T05:54:39;98750.38;;;12.68;100.00
59106;BME280;44891;50.204;8.132;2023-05-08T05:58:42;98749.78;;;12.66;100.00
59106;BME280;44891;50.204;8.132;2023-05-08T06:02:45;98751.31;;;12.62;100.00
59106;BME280;44891;50.204;8.132;2023-05-08T06:06:49;98746.25;;;12.61;100.00
59106;BME280;44891;50.204;8.132;2023-05-08T06:10:52;98742.91;;;12.48;100.00
59106;BME280;44891;50.204;8.132;2023-05-08T06:14:54;98755.94;;;12.55;100.00
59106;BME280;44891;50.204;8.132;2023-05-08T06:18:56;98759.63;;;12.71;100.00
59106;BME280;44891;50.204;8.132;2023-05-08T06:22:59;98761.72;;;12.69;100.00
59106;BME280;44891;50.204;8.132;2023-05-08T06:27:02;98768.47;;;12.65;100.00
59106;BME280;44891;50.204;8.132;2023-05-08T06:31:04;98771.50;;;12.73;100.00
59106;BME280;44891;50.204;8.132;2023-05-08T06:35:06;98774.09;;;12.85;100.00
59106;BME280;44891;50.204;8.132;2023-05-08T06:39:08;98766.44;;;12.84;100.00
59106;BME280;44891;50.204;8.132;2023-05-08T06:43:11;98769.31;;;12.82;100.00
59106;BME280;44891;50.204;8.132;2023-05-08T06:47:13;98766.63;;;12.65;100.00
59106;BME280;44891;50.204;8.132;2023-05-08T06:51:15;98758.81;;;12.70;100.00
59106;BME280;44891;50.204;8.132;2023-05-08T06:55:17;98756.84;;;12.77;100.00
59106;BME280;44891;50.204;8.132;2023-05-08T06:59:20;98763.78;;;12.84;100.00
59106;BME280;44891;50.204;8.132;2023-05-08T07:03:23;98757.09;;;12.76;100.00
59106;BME280;44891;50.204;8.132;2023-05-08T07:07:25;98761.72;;;12.86;100.00
59106;BME280;44891;50.204;8.132;2023-05-08T07:11:27;98758.50;;;13.00;100.00
59106;BME280;44891;50.204;8.132;2023-05-08T07:15:31;98757.34;;;13.08;100.00
59106;BME280;44891;50.204;8.132;2023-05-08T07:19:33;98753.72;;;12.97;100.00
59106;BME280;44891;50.204;8.132;2023-05-08T07:23:35;98754.28;;;13.16;100.00
59106;BME280;44891;50.204;8.132;2023-05-08T07:27:37;98761.00;;;13.24;100.00
59106;BME280;44891;50.204;8.132;2023-05-08T07:31:40;98761.22;;;13.39;100.00
59106;BME280;44891;50.204;8.132;2023-05-08T07:35:42;98759.56;;;13.33;100.00
59106;BME280;44891;50.204;8.132;2023-05-08T07:39:44;98773.88;;;13.37;100.00
59106;BME280;44891;50.204;8.132;2023-05-08T07:43:47;98770.09;;;13.33;100.00
59106;BME280;44891;50.204;8.132;2023-05-08T07:47:50;98770.78;;;13.23;100.00
59106;BME280;44891;50.204;8.132;2023-05-08T07:51:52;98772.34;;;13.24;100.00
59106;BME280;44891;50.204;8.132;2023-05-08T07:55:54;98779.31;;;13.30;100.00
59106;BME280;44891;50.204;8.132;2023-05-08T07:59:59;98767.88;;;13.25;100.00
59106;BME280;44891;50.204;8.132;2023-05-08T08:04:03;98772.59;;;13.23;100.00
59106;BME280;44891;50.204;8.132;2023-05-08T08:08:05;98776.03;;;13.23;100.00
59106;BME280;44891;50.204;8.132;2023-05-08T08:12:07;98777.09;;;13.22;100.00
59106;BME280;44891;50.204;8.132;2023-05-08T08:16:08;98778.00;;;13.33;100.00
59106;BME280;44891;50.204;8.132;2023-05-08T08:20:12;98774.19;;;13.41;100.00
59106;BME280;44891;50.204;8.132;2023-05-08T08:24:14;98781.16;;;13.69;100.00
59106;BME280;44891;50.204;8.132;2023-05-08T08:28:15;98781.50;;;13.94;100.00
59106;BME280;44891;50.204;8.132;2023-05-08T08:32:17;98788.06;;;14.13;100.00
59106;BME280;44891;50.204;8.132;2023-05-08T08:36:20;98791.44;;;14.09;100.00
59106;BME280;44891;50.204;8.132;2023-05-08T08:40:22;98791.19;;;13.88;100.00
59106;BME280;44891;50.204;8.132;2023-05-08T08:44:24;98801.31;;;13.97;100.00
59106;BME280;44891;50.204;8.132;2023-05-08T08:48:27;98801.06;;;13.98;100.00
59106;BME280;44891;50.204;8.132;2023-05-08T08:52:31;98805.81;;;13.96;100.00
59106;BME280;44891;50.204;8.132;2023-05-08T08:56:39;98800.78;;;13.95;100.00
59106;BME280;44891;50.204;8.132;2023-05-08T09:00:42;98793.72;;;14.00;100.00
59106;BME280;44891;50.204;8.132;2023-05-08T09:04:44;98797.50;;;14.31;100.00
59106;BME280;44891;50.204;8.132;2023-05-08T09:08:47;98799.75;;;14.66;99.87
59106;BME280;44891;50.204;8.132;2023-05-08T09:12:49;98797.28;;;14.87;96.49
59106;BME280;44891;50.204;8.132;2023-05-08T09:16:52;98801.91;;;15.02;95.72
59106;BME280;44891;50.204;8.132;2023-05-08T09:20:54;98802.78;;;15.12;94.84
59106;BME280;44891;50.204;8.132;2023-05-08T09:24:57;98804.19;;;15.25;95.29
59106;BME280;44891;50.204;8.132;2023-05-08T09:29:06;98792.59;;;15.68;92.07
59106;BME280;44891;50.204;8.132;2023-05-08T09:33:08;98796.44;;;15.93;92.71
59106;BME280;44891;50.204;8.132;2023-05-08T09:37:11;98793.88;;;16.23;92.02
59106;BME280;44891;50.204;8.132;2023-05-08T09:41:15;98785.69;;;16.35;89.20
59106;BME280;44891;50.204;8.132;2023-05-08T09:45:26;98788.47;;;16.71;88.77
59106;BME280;44891;50.204;8.132;2023-05-08T09:49:30;98793.97;;;16.69;88.54
59106;BME280;44891;50.204;8.132;2023-05-08T09:53:32;98783.84;;;16.36;88.81
59106;BME280;44891;50.204;8.132;2023-05-08T09:57:36;98790.78;;;16.52;89.83
59106;BME280;44891;50.204;8.132;2023-05-08T10:01:38;98789.47;;;16.59;90.11
59106;BME280;44891;50.204;8.132;2023-05-08T10:05:40;98790.28;;;16.65;89.24
59106;BME280;44891;50.204;8.132;2023-05-08T10:09:56;98782.81;;;16.47;89.00
59106;BME280;44891;50.204;8.132;2023-05-08T10:13:59;98782.28;;;16.55;90.54
59106;BME280;44891;50.204;8.132;2023-05-08T10:18:02;98789.75;;;16.68;88.62
59106;BME280;44891;50.204;8.132;2023-05-08T10:22:04;98785.78;;;16.76;88.34
59106;BME280;44891;50.204;8.132;2023-05-08T10:26:10;98784.72;;;16.67;88.00
59106;BME280;44891;50.204;8.132;2023-05-08T10:30:14;98788.16;;;16.67;89.69
59106;BME280;44891;50.204;8.132;2023-05-08T10:34:18;98786.56;;;16.61;90.39
59106;BME280;44891;50.204;8.132;2023-05-08T10:38:20;98780.00;;;16.84;90.48
59106;BME280;44891;50.204;8.132;2023-05-08T10:42:22;98778.88;;;16.70;89.16
59106;BME280;44891;50.204;8.132;2023-05-08T10:46:28;98777.28;;;16.58;90.01
59106;BME280;44891;50.204;8.132;2023-05-08T10:50:33;98776.19;;;16.49;91.51
59106;BME280;44891;50.204;8.132;2023-05-08T10:54:41;98780.44;;;16.45;92.13
59106;BME280;44891;50.204;8.132;2023-05-08T10:58:48;98778.53;;;16.30;93.96
59106;BME280;44891;50.204;8.132;2023-05-08T11:03:04;98773.72;;;16.12;93.61
59106;BME280;44891;50.204;8.132;2023-05-08T11:07:06;98783.22;;;16.08;94.87
59106;BME280;44891;50.204;8.132;2023-05-08T11:11:10;98780.03;;;16.01;95.72
59106;BME280;44891;50.204;8.132;2023-05-08T11:15:14;98778.94;;;15.92;96.02
59106;BME280;44891;50.204;8.132;2023-05-08T11:19:18;98779.47;;;15.94;96.84
59106;BME280;44891;50.204;8.132;2023-05-08T11:23:21;98774.72;;;16.01;96.04
59106;BME280;44891;50.204;8.132;2023-05-08T11:27:33;98776.28;;;15.92;96.49
59106;BME280;44891;50.204;8.132;2023-05-08T11:35:57;98783.53;;;15.59;98.55
59106;BME280;44891;50.204;8.132;2023-05-08T11:40:03;98782.13;;;15.46;99.76
59106;BME280;44891;50.204;8.132;2023-05-08T11:44:25;98776.81;;;15.46;99.97
59106;BME280;44891;50.204;8.132;2023-05-08T11:48:28;98774.94;;;15.42;100.00
59106;BME280;44891;50.204;8.132;2023-05-08T11:52:32;98777.84;;;15.40;100.00
59106;BME280;44891;50.204;8.132;2023-05-08T11:56:33;98784.91;;;15.30;100.00
59106;BME280;44891;50.204;8.132;2023-05-08T12:00:39;98783.38;;;15.34;100.00
59106;BME280;44891;50.204;8.132;2023-05-08T12:04:44;98781.47;;;15.29;100.00
59106;BME280;44891;50.204;8.132;2023-05-08T12:08:47;98784.38;;;15.28;99.75
59106;BME280;44891;50.204;8.132;2023-05-08T12:12:49;98783.63;;;15.32;100.00
59106;BME280;44891;50.204;8.132;2023-05-08T12:16:51;98779.13;;;15.38;100.00
59106;BME280;44891;50.204;8.132;2023-05-08T12:20:53;98781.78;;;15.38;100.00
59106;BME280;44891;50.204;8.132;2023-05-08T12:24:57;98783.66;;;15.42;100.00
59106;BME280;44891;50.204;8.132;2023-05-08T12:28:59;98781.34;;;15.51;100.00
59106;BME280;44891;50.204;8.132;2023-05-08T12:33:01;98786.06;;;15.44;99.20
59106;BME280;44891;50.204;8.132;2023-05-08T12:37:04;98785.00;;;15.45;99.58
59106;BME280;44891;50.204;8.132;2023-05-08T12:41:07;98780.53;;;15.50;100.00
59106;BME280;44891;50.204;8.132;2023-05-08T12:45:19;98778.44;;;15.53;99.52
59106;BME280;44891;50.204;8.132;2023-05-08T12:49:22;98779.03;;;15.60;100.00
59106;BME280;44891;50.204;8.132;2023-05-08T12:53:24;98780.38;;;15.62;100.00
59106;BME280;44891;50.204;8.132;2023-05-08T12:57:27;98780.97;;;15.74;100.00
59106;BME280;44891;50.204;8.132;2023-05-08T13:01:29;98777.22;;;15.65;99.72
59106;BME280;44891;50.204;8.132;2023-05-08T13:05:31;98773.88;;;15.85;99.97
59106;BME280;44891;50.204;8.132;2023-05-08T13:09:32;98772.59;;;15.93;100.00
59106;BME280;44891;50.204;8.132;2023-05-08T13:13:36;98775.97;;;15.78;98.97
59106;BME280;44891;50.204;8.132;2023-05-08T13:17:37;98769.94;;;15.93;99.56
59106;BME280;44891;50.204;8.132;2023-05-08T13:21:39;98771.00;;;15.97;98.65
59106;BME280;44891;50.204;8.132;2023-05-08T13:25:44;98767.63;;;16.22;98.41
59106;BME280;44891;50.204;8.132;2023-05-08T13:29:47;98762.13;;;16.49;97.62
59106;BME280;44891;50.204;8.132;2023-05-08T13:33:49;98757.97;;;16.73;95.09
59106;BME280;44891;50.204;8.132;2023-05-08T13:37:50;98753.44;;;17.04;93.58
59106;BME280;44891;50.204;8.132;2023-05-08T13:41:52;98749.38;;;17.48;87.80
59106;BME280;44891;50.204;8.132;2023-05-08T13:45:55;98743.56;;;18.15;86.46
59106;BME280;44891;50.204;8.132;2023-05-08T13:49:57;98745.72;;;18.92;82.19
59106;BME280;44891;50.204;8.132;2023-05-08T13:53:59;98731.00;;;19.58;76.69
59106;BME280;44891;50.204;8.132;2023-05-08T13:58:01;98726.16;;;20.40;74.00
59106;BME280;44891;50.204;8.132;2023-05-08T14:02:04;98721.22;;;19.72;72.57
59106;BME280;44891;50.204;8.132;2023-05-08T14:06:06;98729.16;;;19.00;77.47
59106;BME280;44891;50.204;8.132;2023-05-08T14:10:08;98720.88;;;18.72;80.62
59106;BME280;44891;50.204;8.132;2023-05-08T14:14:10;98717.22;;;18.19;82.96
59106;BME280;44891;50.204;8.132;2023-05-08T14:18:13;98720.69;;;18.14;81.80
59106;BME280;44891;50.204;8.132;2023-05-08T14:22:15;98721.69;;;18.29;83.35
59106;BME280;44891;50.204;8.132;2023-05-08T14:26:17;98713.44;;;18.30;82.09
59106;BME280;44891;50.204;8.132;2023-05-08T14:30:19;98705.00;;;18.18;81.96
59106;BME280;44891;50.204;8.132;2023-05-08T14:34:22;98712.50;;;18.11;81.29
59106;BME280;44891;50.204;8.132;2023-05-08T14:38:24;98706.44;;;18.00;82.48
59106;BME280;44891;50.204;8.132;2023-05-08T14:42:26;98706.13;;;18.07;82.53
59106;BME280;44891;50.204;8.132;2023-05-08T14:46:27;98704.25;;;18.07;83.43
59106;BME280;44891;50.204;8.132;2023-05-08T14:50:31;98700.16;;;17.81;84.77
59106;BME280;44891;50.204;8.132;2023-05-08T14:54:32;98698.19;;;18.02;85.18
59106;BME280;44891;50.204;8.132;2023-05-08T14:58:34;98696.06;;;18.04;87.20
59106;BME280;44891;50.204;8.132;2023-05-08T15:02:36;98686.88;;;18.25;83.93
59106;BME280;44891;50.204;8.132;2023-05-08T15:06:40;98689.66;;;18.49;83.54
59106;BME280;44891;50.204;8.132;2023-05-08T15:10:42;98689.81;;;18.24;80.29
59106;BME280;44891;50.204;8.132;2023-05-08T15:14:44;98688.00;;;18.14;80.71
59106;BME280;44891;50.204;8.132;2023-05-08T15:18:46;98697.84;;;18.13;79.40
59106;BME280;44891;50.204;8.132;2023-05-08T15:22:49;98690.75;;;18.04;79.61
59106;BME280;44891;50.204;8.132;2023-05-08T15:26:50;98694.53;;;17.92;79.92
59106;BME280;44891;50.204;8.132;2023-05-08T15:30:52;98700.16;;;17.81;80.20
59106;BME280;44891;50.204;8.132;2023-05-08T15:34:54;98698.06;;;17.73;80.38
59106;BME280;44891;50.204;8.132;2023-05-08T15:38:57;98696.72;;;17.70;80.80
59106;BME280;44891;50.204;8.132;2023-05-08T15:42:59;98699.41;;;17.60;80.16
59106;BME280;44891;50.204;8.132;2023-05-08T15:47:01;98696.72;;;17.70;81.77
59106;BME280;44891;50.204;8.132;2023-05-08T15:51:03;98703.91;;;17.75;82.35
59106;BME280;44891;50.204;8.132;2023-05-08T15:55:06;98698.59;;;17.70;83.12
59106;BME280;44891;50.204;8.132;2023-05-08T15:59:09;98706.03;;;17.67;84.21
59106;BME280;44891;50.204;8.132;2023-05-08T16:03:10;98711.06;;;17.74;83.55
59106;BME280;44891;50.204;8.132;2023-05-08T16:07:12;98708.69;;;17.62;84.30
59106;BME280;44891;50.204;8.132;2023-05-08T16:11:15;98708.44;;;17.64;85.34
59106;BME280;44891;50.204;8.132;2023-05-08T16:15:17;98705.28;;;17.52;85.33
59106;BME280;44891;50.204;8.132;2023-05-08T16:19:19;98707.19;;;17.36;85.91
59106;BME280;44891;50.204;8.132;2023-05-08T16:23:21;98712.78;;;17.34;87.07
59106;BME280;44891;50.204;8.132;2023-05-08T16:27:24;98705.88;;;17.28;87.79
59106;BME280;44891;50.204;8.132;2023-05-08T16:31:26;98694.25;;;17.19;88.52
59106;BME280;44891;50.204;8.132;2023-05-08T16:35:28;98698.19;;;17.32;88.38
59106;BME280;44891;50.204;8.132;2023-05-08T16:39:33;98691.03;;;17.27;87.25
59106;BME280;44891;50.204;8.132;2023-05-08T16:43:36;98694.22;;;17.24;87.26
59106;BME280;44891;50.204;8.132;2023-05-08T16:47:38;98696.09;;;17.24;87.22
59106;BME280;44891;50.204;8.132;2023-05-08T16:51:39;98694.75;;;17.16;86.65
59106;BME280;44891;50.204;8.132;2023-05-08T16:55:41;98682.84;;;17.08;87.85
59106;BME280;44891;50.204;8.132;2023-05-08T16:59:44;98675.44;;;17.05;88.68
59106;BME280;44891;50.204;8.132;2023-05-08T17:03:46;98678.06;;;17.10;87.69
59106;BME280;44891;50.204;8.132;2023-05-08T17:07:48;98687.38;;;16.98;88.80
59106;BME280;44891;50.204;8.132;2023-05-08T17:11:50;98684.72;;;16.98;89.86
59106;BME280;44891;50.204;8.132;2023-05-08T17:15:53;98679.41;;;17.03;89.97
59106;BME280;44891;50.204;8.132;2023-05-08T17:19:55;98642.03;;;16.84;89.69
59106;BME280;44891;50.204;8.132;2023-05-08T17:23:57;98685.75;;;17.07;90.74
59106;BME280;44891;50.204;8.132;2023-05-08T17:27:59;98685.50;;;17.08;88.69
59106;BME280;44891;50.204;8.132;2023-05-08T17:32:03;98686.84;;;17.06;88.96
59106;BME280;44891;50.204;8.132;2023-05-08T17:36:05;98688.41;;;17.07;89.24
59106;BME280;44891;50.204;8.132;2023-05-08T17:40:07;98689.50;;;17.06;89.12
59106;BME280;44891;50.204;8.132;2023-05-08T17:44:10;98691.63;;;16.99;88.21
59106;BME280;44891;50.204;8.132;2023-05-08T17:48:13;98695.59;;;16.96;87.00
59106;BME280;44891;50.204;8.132;2023-05-08T17:52:15;98690.84;;;16.98;87.46
59106;BME280;44891;50.204;8.132;2023-05-08T17:56:17;98686.88;;;16.91;88.42
59106;BME280;44891;50.204;8.132;2023-05-08T18:00:20;98685.00;;;16.76;86.61
59106;BME280;44891;50.204;8.132;2023-05-08T18:04:23;98683.41;;;16.75;88.12
59106;BME280;44891;50.204;8.132;2023-05-08T18:08:25;98677.88;;;16.71;90.07
59106;BME280;44891;50.204;8.132;2023-05-08T18:12:27;98685.50;;;16.68;91.57
59106;BME280;44891;50.204;8.132;2023-05-08T18:16:29;98691.09;;;16.66;92.94
59106;BME280;44891;50.204;8.132;2023-05-08T18:20:32;98697.47;;;16.65;93.30
59106;BME280;44891;50.204;8.132;2023-05-08T18:24:34;98697.97;;;16.47;92.82
59106;BME280;44891;50.204;8.132;2023-05-08T18:28:36;98694.81;;;16.45;91.22
59106;BME280;44891;50.204;8.132;2023-05-08T18:32:37;98699.81;;;16.41;91.01
59106;BME280;44891;50.204;8.132;2023-05-08T18:36:41;98694.28;;;16.38;92.63
59106;BME280;44891;50.204;8.132;2023-05-08T18:40:43;98701.41;;;16.42;91.30
59106;BME280;44891;50.204;8.132;2023-05-08T18:44:44;98702.22;;;16.38;91.92
59106;BME280;44891;50.204;8.132;2023-05-08T18:48:46;98699.25;;;16.24;92.76
59106;BME280;44891;50.204;8.132;2023-05-08T18:52:49;98706.94;;;16.20;92.39
59106;BME280;44891;50.204;8.132;2023-05-08T18:56:52;98692.63;;;16.11;92.68
59106;BME280;44891;50.204;8.132;2023-05-08T19:00:54;98696.84;;;16.02;93.72
59106;BME280;44891;50.204;8.132;2023-05-08T19:04:56;98699.47;;;15.87;94.67
59106;BME280;44891;50.204;8.132;2023-05-08T19:08:59;98695.44;;;15.74;95.16
59106;BME280;44891;50.204;8.132;2023-05-08T19:13:01;98688.56;;;15.78;96.31
59106;BME280;44891;50.204;8.132;2023-05-08T19:17:03;98688.31;;;15.80;98.11
59106;BME280;44891;50.204;8.132;2023-05-08T19:21:05;98689.59;;;15.77;99.02
59106;BME280;44891;50.204;8.132;2023-05-08T19:25:08;98681.41;;;15.73;100.00
59106;BME280;44891;50.204;8.132;2023-05-08T19:29:12;98675.81;;;15.65;99.14
59106;BME280;44891;50.204;8.132;2023-05-08T19:33:13;98684.00;;;15.63;98.92
59106;BME280;44891;50.204;8.132;2023-05-08T19:37:19;98684.31;;;15.72;97.21
59106;BME280;44891;50.204;8.132;2023-05-08T19:41:23;98688.00;;;15.66;98.38
59106;BME280;44891;50.204;8.132;2023-05-08T19:45:24;98690.34;;;15.62;97.17
59106;BME280;44891;50.204;8.132;2023-05-08T19:49:26;98684.91;;;15.37;99.60
59106;BME280;44891;50.204;8.132;2023-05-08T19:53:28;98685.38;;;15.23;100.00
59106;BME280;44891;50.204;8.132;2023-05-08T19:57:31;98681.16;;;15.28;100.00
59106;BME280;44891;50.204;8.132;2023-05-08T20:01:33;98678.03;;;15.36;99.48
59106;BME280;44891;50.204;8.132;2023-05-08T20:05:35;98678.31;;;15.39;99.00
59106;BME280;44891;50.204;8.132;2023-05-08T20:09:37;98681.75;;;15.35;100.00
59106;BME280;44891;50.204;8.132;2023-05-08T20:13:40;98687.28;;;15.33;100.00
59106;BME280;44891;50.204;8.132;2023-05-08T20:17:42;98686.97;;;15.24;100.00
59106;BME280;44891;50.204;8.132;2023-05-08T20:21:43;98685.66;;;15.27;100.00
59106;BME280;44891;50.204;8.132;2023-05-08T20:25:45;98683.28;;;15.26;100.00
59106;BME280;44891;50.204;8.132;2023-05-08T20:29:48;98681.16;;;15.28;100.00
59106;BME280;44891;50.204;8.132;2023-05-08T20:33:50;98675.84;;;15.22;100.00
59106;BME280;44891;50.204;8.132;2023-05-08T20:37:52;98673.69;;;15.14;100.00
59106;BME280;44891;50.204;8.132;2023-05-08T20:41:54;98667.88;;;15.12;100.00
59106;BME280;44891;50.204;8.132;2023-05-08T20:45:57;98671.06;;;15.14;100.00
59106;BME280;44891;50.204;8.132;2023-05-08T20:49:59;98663.38;;;15.13;100.00
59106;BME280;44891;50.204;8.132;2023-05-08T20:54:01;98660.50;;;15.19;100.00
59106;BME280;44891;50.204;8.132;2023-05-08T20:58:03;98652.78;;;15.18;100.00
59106;BME280;44891;50.204;8.132;2023-05-08T21:02:07;98658.09;;;15.13;100.00
59106;BME280;44891;50.204;8.132;2023-05-08T21:06:09;98658.88;;;15.13;100.00
59106;BME280;44891;50.204;8.132;2023-05-08T21:10:11;98657.53;;;15.11;100.00
59106;BME280;44891;50.204;8.132;2023-05-08T21:14:13;98672.56;;;15.05;100.00
59106;BME280;44891;50.204;8.132;2023-05-08T21:18:16;98674.75;;;15.13;100.00
59106;BME280;44891;50.204;8.132;2023-05-08T21:22:18;98668.91;;;15.06;100.00
59106;BME280;44891;50.204;8.132;2023-05-08T21:26:20;98668.63;;;15.08;100.00